createdAt,value
2022-07-29T00:01:29.495Z,76.77
2022-07-29T00:06:32.880Z,78.75
2022-07-29T00:11:36.237Z,78.08
2022-07-29T00:16:41.226Z,78.02
2022-07-29T00:21:44.689Z,76.95
2022-07-29T00:26:48.709Z,76.24
2022-07-29T00:31:53.541Z,75.31
2022-07-29T00:36:57.048Z,72.93
2022-07-29T00:42:00.377Z,72.86
2022-07-29T00:47:05.872Z,73.11
2022-07-29T00:52:10.423Z,71.87
2022-07-29T00:57:14.501Z,72.15
2022-07-29T01:02:19.699Z,71.72
2022-07-29T01:07:23.015Z,71.08
2022-07-29T01:12:28.418Z,70.70
2022-07-29T01:17:38.518Z,70.64
2022-07-29T01:23:09.990Z,70.71
2022-07-29T01:28:37.230Z,70.76
2022-07-29T01:33:53.137Z,70.12
2022-07-29T01:39:04.726Z,69.47
2022-07-29T01:44:19.016Z,69.35
2022-07-29T01:49:27.958Z,68.88
2022-07-29T01:54:37.224Z,69.02
2022-07-29T01:59:45.563Z,68.79
2022-07-29T02:04:50.758Z,67.77
2022-07-29T02:09:55.830Z,67.90
2022-07-29T02:15:03.279Z,68.55
2022-07-29T02:20:09.807Z,67.10
2022-07-29T02:25:14.434Z,67.02
2022-07-29T02:30:20.381Z,65.83
2022-07-29T02:35:24.565Z,65.68
2022-07-29T02:40:28.190Z,65.20
2022-07-29T02:45:35.403Z,65.80
2022-07-29T02:50:45.054Z,66.36
2022-07-29T02:55:53.732Z,66.20
2022-07-29T03:01:00.437Z,65.59
2022-07-29T03:06:05.283Z,65.00
2022-07-29T03:17:00.817Z,65.13
2022-07-29T03:22:04.699Z,65.84
2022-07-29T03:27:08.084Z,65.52
2022-07-29T03:32:12.816Z,65.63
2022-07-29T03:37:17.394Z,65.81
2022-07-29T03:42:25.819Z,66.73
2022-07-29T03:47:45.184Z,65.83
2022-07-29T03:52:54.798Z,67.08
2022-07-29T03:57:59.526Z,67.55
2022-07-29T04:03:10.856Z,67.87
2022-07-29T04:08:15.375Z,67.80
2022-07-29T04:13:18.763Z,67.27
2022-07-29T04:18:23.456Z,67.58
2022-07-29T04:23:27.399Z,67.33
2022-07-29T04:28:30.748Z,66.17
2022-07-29T04:33:35.477Z,66.68
2022-07-29T04:38:39.411Z,66.06
2022-07-29T04:43:42.798Z,66.26
2022-07-29T04:48:48.889Z,66.31
2022-07-29T04:53:52.303Z,66.33
2022-07-29T04:58:56.042Z,68.04
2022-07-29T05:04:01.120Z,68.50
2022-07-29T05:09:04.628Z,68.40
2022-07-29T05:14:08.065Z,68.92
2022-07-29T05:19:14.631Z,68.33
2022-07-29T05:24:18.762Z,68.29
2022-07-29T05:29:43.889Z,68.64
2022-07-29T05:34:50.772Z,68.17
2022-07-29T05:39:56.610Z,69.14
2022-07-29T05:45:00.677Z,68.36
2022-07-29T05:50:06.807Z,67.95
2022-07-29T05:55:11.139Z,67.78
2022-07-29T06:00:15.270Z,67.09
2022-07-29T06:05:20.108Z,64.62
2022-07-29T06:10:26.321Z,59.04
2022-07-29T06:15:30.637Z,51.23
2022-07-29T06:20:35.363Z,46.16
2022-07-29T06:25:38.820Z,42.88
2022-07-29T06:30:42.271Z,41.51
2022-07-29T06:35:53.134Z,39.15
2022-07-29T06:41:05.016Z,39.10
2022-07-29T06:46:11.186Z,40.15
2022-07-29T06:51:16.330Z,39.07
2022-07-29T06:56:20.003Z,36.98
2022-07-29T07:01:23.952Z,41.55
2022-07-29T07:06:29.076Z,44.76
2022-07-29T07:11:32.684Z,45.10
2022-07-29T07:16:36.068Z,46.80
2022-07-29T07:21:40.840Z,48.39
2022-07-29T07:26:44.181Z,47.06
2022-07-29T07:31:47.788Z,40.16
2022-07-29T07:36:52.555Z,41.62
2022-07-29T07:41:55.932Z,42.13
2022-07-29T07:47:03.956Z,43.41
2022-07-29T07:52:18.026Z,46.19
2022-07-29T07:57:21.382Z,48.52
2022-07-29T08:02:24.892Z,39.76
2022-07-29T08:07:30.308Z,35.04
2022-07-29T08:12:33.676Z,39.68
2022-07-29T08:17:37.469Z,36.60
2022-07-29T08:22:42.462Z,35.33
2022-07-29T08:27:45.807Z,32.32
2022-07-29T08:32:54.344Z,28.50
2022-07-29T08:37:59.767Z,28.31
2022-07-29T08:43:09.377Z,30.74
2022-07-29T08:48:13.930Z,30.60
2022-07-29T08:53:19.727Z,31.07
2022-07-29T08:58:24.640Z,30.67
2022-07-29T09:03:33.326Z,29.81
2022-07-29T09:08:38.039Z,29.35
2022-07-29T09:13:41.551Z,29.35
2022-07-29T09:18:46.334Z,31.81
2022-07-29T09:24:06.259Z,34.35
2022-07-29T09:29:12.087Z,36.64
2022-07-29T09:34:29.405Z,38.05
2022-07-29T09:39:34.969Z,36.95
2022-07-29T09:44:49.618Z,36.20
2022-07-29T09:49:58.963Z,36.61
2022-07-29T09:55:08.081Z,40.11
2022-07-29T10:00:12.663Z,40.78
2022-07-29T10:05:22.956Z,41.36
2022-07-29T10:10:28.320Z,41.60
2022-07-29T10:15:33.777Z,39.13
2022-07-29T10:20:38.764Z,36.39
2022-07-29T10:25:46.259Z,36.49
2022-07-29T10:30:53.605Z,37.05
2022-07-29T10:36:09.609Z,37.51
2022-07-29T10:41:54.784Z,35.51
2022-07-29T10:46:59.082Z,34.46
2022-07-29T10:52:07.913Z,36.56
2022-07-29T10:57:21.449Z,37.04
2022-07-29T11:02:47.002Z,35.94
2022-07-29T11:08:26.260Z,37.05
2022-07-29T11:13:51.292Z,36.03
2022-07-29T11:19:29.770Z,38.53
2022-07-29T11:24:36.990Z,37.49
2022-07-29T11:29:50.057Z,37.10
2022-07-29T11:35:22.338Z,37.35
2022-07-29T11:40:43.434Z,37.23
2022-07-29T11:45:48.758Z,36.25
2022-07-29T11:50:53.862Z,36.05
2022-07-29T11:56:00.994Z,34.85
2022-07-29T12:01:06.310Z,35.38
2022-07-29T12:06:17.946Z,36.56
2022-07-29T12:11:23.735Z,36.78
2022-07-29T12:16:37.952Z,36.84
2022-07-29T12:21:59.563Z,36.53
2022-07-29T12:27:05.390Z,36.58
2022-07-29T12:32:14.866Z,37.02
2022-07-29T12:37:41.226Z,37.59
2022-07-29T12:43:08.916Z,37.78
2022-07-29T12:48:12.692Z,36.77
2022-07-29T12:53:15.989Z,36.18
2022-07-29T12:58:34.227Z,35.17
2022-07-29T13:03:57.006Z,36.19
2022-07-29T13:09:11.702Z,36.27
2022-07-29T13:14:32.134Z,35.67
2022-07-29T13:19:37.816Z,34.51
2022-07-29T13:24:48.567Z,34.22
2022-07-29T13:29:54.500Z,37.21
2022-07-29T13:34:57.910Z,38.18
2022-07-29T13:40:01.409Z,39.56
2022-07-29T13:45:08.624Z,37.81
2022-07-29T13:50:11.944Z,37.27
2022-07-29T13:55:15.516Z,36.79
2022-07-29T14:00:21.025Z,33.75
2022-07-29T14:05:24.586Z,30.83
2022-07-29T14:10:28.411Z,30.64
2022-07-29T14:15:33.183Z,30.32
2022-07-29T14:20:42.746Z,30.21
2022-07-29T14:25:46.127Z,31.12
2022-07-29T14:30:54.217Z,33.03
2022-07-29T14:36:01.190Z,36.08
2022-07-29T14:41:04.768Z,35.27
2022-07-29T14:46:09.504Z,32.59
2022-07-29T14:51:13.183Z,30.02
2022-07-29T14:56:35.933Z,32.17
2022-07-29T15:01:41.321Z,37.23
2022-07-29T15:06:44.904Z,36.50
2022-07-29T15:11:48.355Z,37.67
2022-07-29T15:16:53.084Z,40.43
2022-07-29T15:21:59.656Z,42.30
2022-07-29T15:27:03.209Z,43.28
2022-07-29T15:32:08.927Z,44.26
2022-07-29T15:37:12.552Z,44.61
2022-07-29T15:42:16.275Z,45.07
2022-07-29T15:47:22.656Z,45.77
2022-07-29T15:52:26.580Z,46.12
2022-07-29T15:57:30.186Z,46.15
2022-07-29T16:02:34.954Z,46.54
2022-07-29T16:07:38.662Z,46.56
2022-07-29T16:12:41.984Z,46.90
2022-07-29T16:17:46.851Z,47.53
2022-07-29T16:22:50.353Z,48.26
2022-07-29T16:27:58.149Z,50.03
2022-07-29T16:33:08.262Z,51.73
2022-07-29T16:38:12.172Z,53.31
2022-07-29T16:43:15.888Z,54.57
2022-07-29T16:48:20.806Z,59.13
2022-07-29T16:53:28.352Z,62.28
2022-07-29T16:58:33.445Z,64.76
2022-07-29T17:04:00.254Z,67.97
2022-07-29T17:09:05.514Z,69.06
2022-07-29T17:14:09.074Z,69.50
2022-07-29T17:19:14.455Z,70.35
2022-07-29T17:24:18.063Z,71.27
2022-07-29T17:29:22.285Z,70.74
2022-07-29T17:34:27.080Z,70.66
2022-07-29T17:39:30.774Z,70.25
2022-07-29T17:44:36.273Z,70.07
2022-07-29T17:49:41.296Z,71.02
2022-07-29T17:54:44.784Z,72.44
2022-07-29T17:59:48.062Z,75.99
2022-07-29T18:04:52.733Z,77.68
2022-07-29T18:10:00.411Z,82.27
2022-07-29T18:15:05.445Z,85.16
2022-07-29T18:20:11.672Z,87.14
2022-07-29T18:25:15.066Z,92.57
2022-07-29T18:30:19.318Z,96.67
2022-07-29T18:35:24.022Z,99.63
2022-07-29T18:40:27.869Z,100.00
2022-07-29T18:45:33.180Z,99.76
2022-07-29T18:50:38.017Z,100.00
2022-07-29T18:55:41.321Z,100.00
2022-07-29T19:00:44.648Z,100.00
2022-07-29T19:05:49.557Z,100.00
2022-07-29T19:10:53.444Z,100.00
2022-07-29T19:15:56.862Z,100.00
2022-07-29T19:21:01.545Z,100.00
2022-07-29T19:26:05.274Z,100.00
2022-07-29T19:31:11.826Z,100.00
2022-07-29T19:36:16.640Z,100.00
2022-07-29T19:41:20.020Z,100.00
2022-07-29T19:46:24.108Z,100.00
2022-07-29T19:51:28.892Z,100.00
2022-07-29T19:56:32.229Z,100.00
2022-07-29T20:01:35.652Z,100.00
2022-07-29T20:06:40.977Z,100.00
2022-07-29T20:11:44.268Z,100.00
2022-07-29T20:16:47.704Z,100.00
2022-07-29T20:21:52.536Z,100.00
2022-07-29T20:26:55.892Z,100.00
2022-07-29T20:31:59.193Z,100.00
2022-07-29T20:37:04.009Z,100.00
2022-07-29T20:42:07.938Z,100.00
2022-07-29T20:47:11.536Z,100.00
2022-07-29T20:52:16.363Z,100.00
2022-07-29T20:57:19.707Z,100.00
2022-07-29T21:02:42.375Z,100.00
2022-07-29T21:07:47.103Z,100.00
2022-07-29T21:12:50.642Z,100.00
2022-07-29T21:18:00.665Z,100.00
2022-07-29T21:23:05.384Z,100.00
2022-07-29T21:28:25.994Z,100.00
2022-07-29T21:33:31.311Z,100.00
2022-07-29T21:38:36.433Z,100.00
2022-07-29T21:43:41.856Z,100.00
2022-07-29T21:48:45.519Z,100.00
2022-07-29T21:53:50.664Z,100.00
2022-07-29T21:58:56.527Z,100.00
2022-07-29T22:03:59.878Z,100.00
2022-07-29T22:09:05.528Z,100.00
2022-07-29T22:14:08.873Z,100.00
2022-07-29T22:19:12.434Z,100.00
2022-07-29T22:24:17.701Z,100.00
2022-07-29T22:29:21.026Z,100.00
2022-07-29T22:34:24.342Z,100.00
2022-07-29T22:39:35.334Z,100.00
2022-07-29T22:44:38.659Z,100.00
2022-07-29T22:49:42.120Z,100.00
2022-07-29T22:54:46.734Z,100.00
2022-07-29T22:59:50.052Z,100.00
2022-07-29T23:04:53.383Z,100.00
2022-07-29T23:09:58.077Z,100.00
2022-07-29T23:15:01.392Z,100.00
2022-07-29T23:20:09.859Z,100.00
2022-07-29T23:25:14.697Z,100.00
2022-07-29T23:30:18.074Z,100.00
2022-07-29T23:35:21.581Z,100.00
2022-07-29T23:40:26.280Z,100.00
2022-07-29T23:45:40.028Z,100.00
2022-07-29T23:50:48.463Z,100.00
2022-07-29T23:55:53.213Z,100.00
